sensor_id;sensor_type;location;lat;lon;timestamp;P1;durP1;ratioP1;P2;durP2;ratioP2
22935;SDS011;11633;42.716;23.312;2022-10-16T00:00:37;8.35;;;5.68;;
22935;SDS011;11633;42.716;23.312;2022-10-16T00:03:04;9.55;;;5.65;;
22935;SDS011;11633;42.716;23.312;2022-10-16T00:05:29;9.20;;;5.72;;
22935;SDS011;11633;42.716;23.312;2022-10-16T00:07:54;7.82;;;5.70;;
22935;SDS011;11633;42.716;23.312;2022-10-16T00:10:20;8.65;;;5.22;;
22935;SDS011;11633;42.716;23.312;2022-10-16T00:12:45;6.50;;;5.22;;
22935;SDS011;11633;42.716;23.312;2022-10-16T00:15:10;10.77;;;6.70;;
22935;SDS011;11633;42.716;23.312;2022-10-16T00:17:36;9.32;;;6.05;;
22935;SDS011;11633;42.716;23.312;2022-10-16T00:20:01;10.65;;;6.38;;
22935;SDS011;11633;42.716;23.312;2022-10-16T00:22:26;6.95;;;5.13;;
22935;SDS011;11633;42.716;23.312;2022-10-16T00:24:52;7.53;;;6.13;;
22935;SDS011;11633;42.716;23.312;2022-10-16T00:27:17;10.00;;;6.07;;
22935;SDS011;11633;42.716;23.312;2022-10-16T00:29:42;11.77;;;6.03;;
22935;SDS011;11633;42.716;23.312;2022-10-16T00:32:08;8.70;;;6.00;;
22935;SDS011;11633;42.716;23.312;2022-10-16T00:34:33;9.57;;;5.95;;
22935;SDS011;11633;42.716;23.312;2022-10-16T00:36:58;7.53;;;6.55;;
22935;SDS011;11633;42.716;23.312;2022-10-16T00:39:24;8.85;;;5.75;;
22935;SDS011;11633;42.716;23.312;2022-10-16T00:41:49;9.00;;;5.45;;
22935;SDS011;11633;42.716;23.312;2022-10-16T00:46:59;12.15;;;6.28;;
22935;SDS011;11633;42.716;23.312;2022-10-16T00:49:24;6.35;;;4.95;;
22935;SDS011;11633;42.716;23.312;2022-10-16T00:51:49;8.50;;;5.80;;
22935;SDS011;11633;42.716;23.312;2022-10-16T00:54:26;8.25;;;5.57;;
22935;SDS011;11633;42.716;23.312;2022-10-16T00:56:52;8.80;;;5.55;;
22935;SDS011;11633;42.716;23.312;2022-10-16T00:59:20;8.38;;;5.70;;
22935;SDS011;11633;42.716;23.312;2022-10-16T01:01:47;8.63;;;5.35;;
22935;SDS011;11633;42.716;23.312;2022-10-16T01:04:12;8.13;;;5.43;;
22935;SDS011;11633;42.716;23.312;2022-10-16T01:06:43;10.07;;;5.10;;
22935;SDS011;11633;42.716;23.312;2022-10-16T01:09:13;7.90;;;4.57;;
22935;SDS011;11633;42.716;23.312;2022-10-16T01:14:26;8.00;;;5.18;;
22935;SDS011;11633;42.716;23.312;2022-10-16T01:16:53;7.45;;;5.15;;
22935;SDS011;11633;42.716;23.312;2022-10-16T01:19:26;9.25;;;5.18;;
22935;SDS011;11633;42.716;23.312;2022-10-16T01:21:57;7.93;;;4.68;;
22935;SDS011;11633;42.716;23.312;2022-10-16T01:24:39;7.85;;;5.35;;
22935;SDS011;11633;42.716;23.312;2022-10-16T01:34:57;9.70;;;4.97;;
22935;SDS011;11633;42.716;23.312;2022-10-16T01:40:10;7.28;;;5.10;;
22935;SDS011;11633;42.716;23.312;2022-10-16T01:42:40;8.70;;;5.20;;
22935;SDS011;11633;42.716;23.312;2022-10-16T01:45:07;11.35;;;6.05;;
22935;SDS011;11633;42.716;23.312;2022-10-16T01:47:33;9.18;;;5.57;;
22935;SDS011;11633;42.716;23.312;2022-10-16T01:49:59;7.93;;;5.53;;
22935;SDS011;11633;42.716;23.312;2022-10-16T01:52:26;9.85;;;5.97;;
22935;SDS011;11633;42.716;23.312;2022-10-16T01:54:53;7.72;;;5.55;;
22935;SDS011;11633;42.716;23.312;2022-10-16T01:57:20;8.98;;;5.65;;
22935;SDS011;11633;42.716;23.312;2022-10-16T01:59:47;6.70;;;4.93;;
22935;SDS011;11633;42.716;23.312;2022-10-16T02:02:14;7.38;;;5.03;;
22935;SDS011;11633;42.716;23.312;2022-10-16T02:04:42;9.25;;;5.60;;
22935;SDS011;11633;42.716;23.312;2022-10-16T02:07:08;8.07;;;5.90;;
22935;SDS011;11633;42.716;23.312;2022-10-16T02:09:34;9.02;;;6.65;;
22935;SDS011;11633;42.716;23.312;2022-10-16T02:12:01;12.35;;;6.90;;
22935;SDS011;11633;42.716;23.312;2022-10-16T02:14:28;8.20;;;5.65;;
22935;SDS011;11633;42.716;23.312;2022-10-16T02:16:54;8.23;;;5.55;;
22935;SDS011;11633;42.716;23.312;2022-10-16T02:19:19;6.95;;;4.40;;
22935;SDS011;11633;42.716;23.312;2022-10-16T02:21:53;7.45;;;5.15;;
22935;SDS011;11633;42.716;23.312;2022-10-16T02:24:24;6.13;;;4.80;;
22935;SDS011;11633;42.716;23.312;2022-10-16T02:26:56;7.68;;;4.03;;
22935;SDS011;11633;42.716;23.312;2022-10-16T02:29:23;8.55;;;4.57;;
22935;SDS011;11633;42.716;23.312;2022-10-16T02:31:50;6.80;;;4.30;;
22935;SDS011;11633;42.716;23.312;2022-10-16T02:34:17;6.85;;;4.53;;
22935;SDS011;11633;42.716;23.312;2022-10-16T02:36:43;9.30;;;3.97;;
22935;SDS011;11633;42.716;23.312;2022-10-16T02:39:09;6.28;;;4.18;;
22935;SDS011;11633;42.716;23.312;2022-10-16T02:41:35;5.32;;;3.83;;
22935;SDS011;11633;42.716;23.312;2022-10-16T02:44:00;6.82;;;4.20;;
22935;SDS011;11633;42.716;23.312;2022-10-16T02:46:25;7.65;;;4.38;;
22935;SDS011;11633;42.716;23.312;2022-10-16T02:48:51;8.50;;;4.30;;
22935;SDS011;11633;42.716;23.312;2022-10-16T02:51:16;7.35;;;3.78;;
22935;SDS011;11633;42.716;23.312;2022-10-16T02:53:41;6.45;;;4.10;;
22935;SDS011;11633;42.716;23.312;2022-10-16T02:56:06;7.50;;;4.35;;
22935;SDS011;11633;42.716;23.312;2022-10-16T02:58:32;5.72;;;4.07;;
22935;SDS011;11633;42.716;23.312;2022-10-16T03:00:57;6.95;;;4.15;;
22935;SDS011;11633;42.716;23.312;2022-10-16T03:03:22;9.57;;;4.72;;
22935;SDS011;11633;42.716;23.312;2022-10-16T03:05:47;6.88;;;4.03;;
22935;SDS011;11633;42.716;23.312;2022-10-16T03:08:13;5.50;;;4.43;;
22935;SDS011;11633;42.716;23.312;2022-10-16T03:10:38;7.65;;;4.38;;
22935;SDS011;11633;42.716;23.312;2022-10-16T03:13:03;10.02;;;5.03;;
22935;SDS011;11633;42.716;23.312;2022-10-16T03:15:29;7.82;;;4.03;;
22935;SDS011;11633;42.716;23.312;2022-10-16T03:17:55;7.35;;;4.57;;
22935;SDS011;11633;42.716;23.312;2022-10-16T03:20:22;7.72;;;4.72;;
22935;SDS011;11633;42.716;23.312;2022-10-16T03:22:47;5.13;;;4.25;;
22935;SDS011;11633;42.716;23.312;2022-10-16T03:25:12;7.57;;;4.75;;
22935;SDS011;11633;42.716;23.312;2022-10-16T03:27:37;5.75;;;3.92;;
22935;SDS011;11633;42.716;23.312;2022-10-16T03:30:03;10.60;;;4.88;;
22935;SDS011;11633;42.716;23.312;2022-10-16T03:32:28;10.80;;;5.50;;
22935;SDS011;11633;42.716;23.312;2022-10-16T03:34:53;7.40;;;5.13;;
22935;SDS011;11633;42.716;23.312;2022-10-16T03:37:21;9.15;;;5.07;;
22935;SDS011;11633;42.716;23.312;2022-10-16T03:39:46;6.45;;;4.32;;
22935;SDS011;11633;42.716;23.312;2022-10-16T03:42:11;10.73;;;5.43;;
22935;SDS011;11633;42.716;23.312;2022-10-16T03:44:37;9.23;;;5.13;;
22935;SDS011;11633;42.716;23.312;2022-10-16T03:47:02;8.55;;;4.22;;
22935;SDS011;11633;42.716;23.312;2022-10-16T03:49:28;5.00;;;4.28;;
22935;SDS011;11633;42.716;23.312;2022-10-16T03:51:53;8.95;;;5.03;;
22935;SDS011;11633;42.716;23.312;2022-10-16T03:54:18;8.57;;;4.95;;
22935;SDS011;11633;42.716;23.312;2022-10-16T03:56:44;7.50;;;4.45;;
22935;SDS011;11633;42.716;23.312;2022-10-16T03:59:09;8.52;;;4.93;;
22935;SDS011;11633;42.716;23.312;2022-10-16T04:01:34;6.65;;;4.93;;
22935;SDS011;11633;42.716;23.312;2022-10-16T04:03:59;8.70;;;5.15;;
22935;SDS011;11633;42.716;23.312;2022-10-16T04:06:25;6.50;;;4.20;;
22935;SDS011;11633;42.716;23.312;2022-10-16T04:08:50;9.02;;;5.35;;
22935;SDS011;11633;42.716;23.312;2022-10-16T04:11:15;7.80;;;5.20;;
22935;SDS011;11633;42.716;23.312;2022-10-16T04:13:41;6.13;;;4.10;;
22935;SDS011;11633;42.716;23.312;2022-10-16T04:16:06;7.65;;;4.55;;
22935;SDS011;11633;42.716;23.312;2022-10-16T04:18:31;6.68;;;4.25;;
22935;SDS011;11633;42.716;23.312;2022-10-16T04:20:57;6.50;;;5.75;;
22935;SDS011;11633;42.716;23.312;2022-10-16T04:23:26;8.27;;;4.88;;
22935;SDS011;11633;42.716;23.312;2022-10-16T04:25:51;10.30;;;5.40;;
22935;SDS011;11633;42.716;23.312;2022-10-16T04:28:17;8.55;;;5.57;;
22935;SDS011;11633;42.716;23.312;2022-10-16T04:30:42;7.00;;;5.10;;
22935;SDS011;11633;42.716;23.312;2022-10-16T04:33:08;9.70;;;5.43;;
22935;SDS011;11633;42.716;23.312;2022-10-16T04:35:33;7.85;;;5.10;;
22935;SDS011;11633;42.716;23.312;2022-10-16T04:37:59;8.73;;;5.47;;
22935;SDS011;11633;42.716;23.312;2022-10-16T04:40:24;8.80;;;5.47;;
22935;SDS011;11633;42.716;23.312;2022-10-16T04:42:49;10.80;;;5.82;;
22935;SDS011;11633;42.716;23.312;2022-10-16T04:45:14;8.52;;;5.65;;
22935;SDS011;11633;42.716;23.312;2022-10-16T04:47:40;9.65;;;5.40;;
22935;SDS011;11633;42.716;23.312;2022-10-16T04:50:05;8.10;;;6.07;;
22935;SDS011;11633;42.716;23.312;2022-10-16T04:52:31;8.90;;;6.00;;
22935;SDS011;11633;42.716;23.312;2022-10-16T04:54:56;9.43;;;6.10;;
22935;SDS011;11633;42.716;23.312;2022-10-16T04:57:25;11.07;;;6.10;;
22935;SDS011;11633;42.716;23.312;2022-10-16T04:59:51;9.82;;;6.32;;
22935;SDS011;11633;42.716;23.312;2022-10-16T05:02:17;7.72;;;5.93;;
22935;SDS011;11633;42.716;23.312;2022-10-16T05:04:42;10.20;;;6.60;;
22935;SDS011;11633;42.716;23.312;2022-10-16T05:07:07;8.07;;;5.18;;
22935;SDS011;11633;42.716;23.312;2022-10-16T05:09:33;10.98;;;5.40;;
22935;SDS011;11633;42.716;23.312;2022-10-16T05:11:58;7.22;;;5.05;;
22935;SDS011;11633;42.716;23.312;2022-10-16T05:14:23;8.80;;;4.97;;
22935;SDS011;11633;42.716;23.312;2022-10-16T05:16:48;6.43;;;4.95;;
22935;SDS011;11633;42.716;23.312;2022-10-16T05:19:14;4.80;;;3.13;;
22935;SDS011;11633;42.716;23.312;2022-10-16T05:21:39;5.20;;;3.60;;
22935;SDS011;11633;42.716;23.312;2022-10-16T05:24:05;4.32;;;3.08;;
22935;SDS011;11633;42.716;23.312;2022-10-16T05:26:30;6.88;;;4.40;;
22935;SDS011;11633;42.716;23.312;2022-10-16T05:28:55;4.93;;;4.00;;
22935;SDS011;11633;42.716;23.312;2022-10-16T05:31:20;5.53;;;3.67;;
22935;SDS011;11633;42.716;23.312;2022-10-16T05:33:46;6.43;;;4.22;;
22935;SDS011;11633;42.716;23.312;2022-10-16T05:36:11;7.70;;;4.00;;
22935;SDS011;11633;42.716;23.312;2022-10-16T05:38:36;5.70;;;4.00;;
22935;SDS011;11633;42.716;23.312;2022-10-16T05:41:02;4.38;;;3.80;;
22935;SDS011;11633;42.716;23.312;2022-10-16T05:43:28;5.30;;;4.20;;
22935;SDS011;11633;42.716;23.312;2022-10-16T05:45:57;10.18;;;6.43;;
22935;SDS011;11633;42.716;23.312;2022-10-16T05:48:23;4.80;;;4.30;;
22935;SDS011;11633;42.716;23.312;2022-10-16T05:50:48;7.15;;;4.05;;
22935;SDS011;11633;42.716;23.312;2022-10-16T05:53:20;7.43;;;4.20;;
22935;SDS011;11633;42.716;23.312;2022-10-16T05:55:54;8.25;;;4.80;;
22935;SDS011;11633;42.716;23.312;2022-10-16T05:58:19;7.18;;;5.38;;
22935;SDS011;11633;42.716;23.312;2022-10-16T06:00:44;6.35;;;5.00;;
22935;SDS011;11633;42.716;23.312;2022-10-16T06:03:10;6.80;;;5.53;;
22935;SDS011;11633;42.716;23.312;2022-10-16T06:05:35;5.82;;;5.20;;
22935;SDS011;11633;42.716;23.312;2022-10-16T06:08:00;5.72;;;4.82;;
22935;SDS011;11633;42.716;23.312;2022-10-16T06:10:25;5.85;;;3.85;;
22935;SDS011;11633;42.716;23.312;2022-10-16T06:12:50;8.43;;;5.15;;
22935;SDS011;11633;42.716;23.312;2022-10-16T06:15:16;5.57;;;3.83;;
22935;SDS011;11633;42.716;23.312;2022-10-16T06:17:41;6.25;;;4.55;;
22935;SDS011;11633;42.716;23.312;2022-10-16T06:20:06;7.20;;;4.63;;
22935;SDS011;11633;42.716;23.312;2022-10-16T06:22:31;7.78;;;4.00;;
22935;SDS011;11633;42.716;23.312;2022-10-16T06:24:57;5.00;;;4.13;;
22935;SDS011;11633;42.716;23.312;2022-10-16T06:27:22;5.47;;;4.32;;
22935;SDS011;11633;42.716;23.312;2022-10-16T06:29:47;6.68;;;3.90;;
22935;SDS011;11633;42.716;23.312;2022-10-16T06:32:12;5.38;;;3.60;;
22935;SDS011;11633;42.716;23.312;2022-10-16T06:34:38;7.32;;;4.80;;
22935;SDS011;11633;42.716;23.312;2022-10-16T06:37:05;5.38;;;3.88;;
22935;SDS011;11633;42.716;23.312;2022-10-16T06:39:30;6.70;;;4.38;;
22935;SDS011;11633;42.716;23.312;2022-10-16T06:41:55;6.90;;;4.20;;
22935;SDS011;11633;42.716;23.312;2022-10-16T06:44:20;7.32;;;4.50;;
22935;SDS011;11633;42.716;23.312;2022-10-16T06:46:46;6.43;;;4.60;;
22935;SDS011;11633;42.716;23.312;2022-10-16T06:49:11;6.05;;;5.10;;
22935;SDS011;11633;42.716;23.312;2022-10-16T06:51:36;6.07;;;4.38;;
22935;SDS011;11633;42.716;23.312;2022-10-16T06:54:05;5.97;;;4.47;;
22935;SDS011;11633;42.716;23.312;2022-10-16T06:56:31;7.03;;;4.72;;
22935;SDS011;11633;42.716;23.312;2022-10-16T06:58:57;7.03;;;4.53;;
22935;SDS011;11633;42.716;23.312;2022-10-16T07:01:22;11.23;;;5.65;;
22935;SDS011;11633;42.716;23.312;2022-10-16T07:03:48;9.68;;;4.85;;
22935;SDS011;11633;42.716;23.312;2022-10-16T07:06:15;13.32;;;5.43;;
22935;SDS011;11633;42.716;23.312;2022-10-16T07:08:41;6.78;;;4.65;;
22935;SDS011;11633;42.716;23.312;2022-10-16T07:11:08;7.93;;;4.47;;
22935;SDS011;11633;42.716;23.312;2022-10-16T07:13:34;9.95;;;4.75;;
22935;SDS011;11633;42.716;23.312;2022-10-16T07:16:10;7.60;;;4.70;;
22935;SDS011;11633;42.716;23.312;2022-10-16T07:18:35;6.82;;;4.45;;
22935;SDS011;11633;42.716;23.312;2022-10-16T07:21:05;6.88;;;4.57;;
22935;SDS011;11633;42.716;23.312;2022-10-16T07:23:30;8.35;;;4.85;;
22935;SDS011;11633;42.716;23.312;2022-10-16T07:25:56;6.20;;;4.72;;
22935;SDS011;11633;42.716;23.312;2022-10-16T07:28:21;7.40;;;4.78;;
22935;SDS011;11633;42.716;23.312;2022-10-16T07:30:47;6.15;;;4.85;;
22935;SDS011;11633;42.716;23.312;2022-10-16T07:33:12;6.47;;;5.03;;
22935;SDS011;11633;42.716;23.312;2022-10-16T07:35:37;7.57;;;4.93;;
22935;SDS011;11633;42.716;23.312;2022-10-16T07:38:02;6.20;;;4.30;;
22935;SDS011;11633;42.716;23.312;2022-10-16T07:40:28;8.65;;;5.45;;
22935;SDS011;11633;42.716;23.312;2022-10-16T07:42:53;8.88;;;6.35;;
22935;SDS011;11633;42.716;23.312;2022-10-16T07:45:18;8.90;;;5.85;;
22935;SDS011;11633;42.716;23.312;2022-10-16T07:47:43;8.25;;;5.45;;
22935;SDS011;11633;42.716;23.312;2022-10-16T07:50:08;8.63;;;5.93;;
22935;SDS011;11633;42.716;23.312;2022-10-16T07:52:34;10.05;;;5.95;;
22935;SDS011;11633;42.716;23.312;2022-10-16T07:54:59;9.43;;;5.88;;
22935;SDS011;11633;42.716;23.312;2022-10-16T07:57:24;8.00;;;5.07;;
22935;SDS011;11633;42.716;23.312;2022-10-16T07:59:49;7.32;;;5.03;;
22935;SDS011;11633;42.716;23.312;2022-10-16T08:02:15;6.82;;;5.28;;
22935;SDS011;11633;42.716;23.312;2022-10-16T08:04:40;6.97;;;5.47;;
22935;SDS011;11633;42.716;23.312;2022-10-16T08:07:06;6.85;;;5.05;;
22935;SDS011;11633;42.716;23.312;2022-10-16T08:09:32;6.60;;;5.28;;
22935;SDS011;11633;42.716;23.312;2022-10-16T08:11:57;6.85;;;4.75;;
22935;SDS011;11633;42.716;23.312;2022-10-16T08:14:22;8.52;;;5.45;;
22935;SDS011;11633;42.716;23.312;2022-10-16T08:16:47;7.63;;;4.90;;
22935;SDS011;11633;42.716;23.312;2022-10-16T08:19:13;8.45;;;5.25;;
22935;SDS011;11633;42.716;23.312;2022-10-16T08:21:40;7.43;;;5.80;;
22935;SDS011;11633;42.716;23.312;2022-10-16T08:24:05;7.70;;;5.32;;
22935;SDS011;11633;42.716;23.312;2022-10-16T08:26:30;8.23;;;5.00;;
22935;SDS011;11633;42.716;23.312;2022-10-16T08:28:56;6.25;;;4.85;;
22935;SDS011;11633;42.716;23.312;2022-10-16T08:31:21;5.35;;;4.28;;
22935;SDS011;11633;42.716;23.312;2022-10-16T08:33:47;5.20;;;4.68;;
22935;SDS011;11633;42.716;23.312;2022-10-16T08:36:13;3.75;;;3.30;;
22935;SDS011;11633;42.716;23.312;2022-10-16T08:38:38;3.15;;;2.47;;
22935;SDS011;11633;42.716;23.312;2022-10-16T08:43:54;4.13;;;2.92;;
22935;SDS011;11633;42.716;23.312;2022-10-16T08:48:57;6.75;;;3.28;;
22935;SDS011;11633;42.716;23.312;2022-10-16T08:51:24;3.95;;;3.10;;
22935;SDS011;11633;42.716;23.312;2022-10-16T08:53:53;5.72;;;3.13;;
22935;SDS011;11633;42.716;23.312;2022-10-16T08:56:19;5.97;;;3.30;;
22935;SDS011;11633;42.716;23.312;2022-10-16T08:58:45;5.15;;;3.28;;
22935;SDS011;11633;42.716;23.312;2022-10-16T09:01:11;4.38;;;3.17;;
22935;SDS011;11633;42.716;23.312;2022-10-16T09:11:00;3.63;;;2.47;;
22935;SDS011;11633;42.716;23.312;2022-10-16T09:13:43;3.60;;;2.30;;
22935;SDS011;11633;42.716;23.312;2022-10-16T09:16:35;3.40;;;2.28;;
22935;SDS011;11633;42.716;23.312;2022-10-16T09:21:31;3.08;;;2.20;;
22935;SDS011;11633;42.716;23.312;2022-10-16T09:24:00;3.60;;;2.58;;
22935;SDS011;11633;42.716;23.312;2022-10-16T09:26:29;5.45;;;2.70;;
22935;SDS011;11633;42.716;23.312;2022-10-16T09:28:55;3.00;;;2.55;;
22935;SDS011;11633;42.716;23.312;2022-10-16T09:31:21;4.72;;;2.00;;
22935;SDS011;11633;42.716;23.312;2022-10-16T09:33:48;3.13;;;2.20;;
22935;SDS011;11633;42.716;23.312;2022-10-16T09:36:15;3.17;;;2.20;;
22935;SDS011;11633;42.716;23.312;2022-10-16T09:38:41;5.55;;;2.40;;
22935;SDS011;11633;42.716;23.312;2022-10-16T09:43:41;3.42;;;2.35;;
22935;SDS011;11633;42.716;23.312;2022-10-16T09:46:29;3.10;;;1.65;;
22935;SDS011;11633;42.716;23.312;2022-10-16T09:49:03;3.33;;;2.13;;
22935;SDS011;11633;42.716;23.312;2022-10-16T09:51:33;2.75;;;2.03;;
22935;SDS011;11633;42.716;23.312;2022-10-16T09:56:35;2.60;;;2.20;;
22935;SDS011;11633;42.716;23.312;2022-10-16T09:59:14;3.10;;;2.00;;
22935;SDS011;11633;42.716;23.312;2022-10-16T10:01:44;3.33;;;2.45;;
22935;SDS011;11633;42.716;23.312;2022-10-16T10:04:10;3.95;;;2.40;;
22935;SDS011;11633;42.716;23.312;2022-10-16T10:11:39;3.55;;;1.80;;
22935;SDS011;11633;42.716;23.312;2022-10-16T10:14:27;4.43;;;1.75;;
22935;SDS011;11633;42.716;23.312;2022-10-16T10:16:51;2.67;;;1.98;;
22935;SDS011;11633;42.716;23.312;2022-10-16T10:21:42;2.60;;;2.17;;
22935;SDS011;11633;42.716;23.312;2022-10-16T10:24:11;3.00;;;2.30;;
22935;SDS011;11633;42.716;23.312;2022-10-16T10:26:36;5.53;;;2.40;;
22935;SDS011;11633;42.716;23.312;2022-10-16T10:29:06;3.47;;;2.08;;
22935;SDS011;11633;42.716;23.312;2022-10-16T10:31:41;2.90;;;2.08;;
22935;SDS011;11633;42.716;23.312;2022-10-16T10:36:40;3.47;;;2.53;;
22935;SDS011;11633;42.716;23.312;2022-10-16T10:44:25;2.85;;;1.83;;
22935;SDS011;11633;42.716;23.312;2022-10-16T10:51:59;2.92;;;2.13;;
22935;SDS011;11633;42.716;23.312;2022-10-16T10:57:00;4.13;;;2.33;;
22935;SDS011;11633;42.716;23.312;2022-10-16T11:02:09;2.58;;;1.75;;
22935;SDS011;11633;42.716;23.312;2022-10-16T11:07:13;3.45;;;2.10;;
22935;SDS011;11633;42.716;23.312;2022-10-16T11:09:41;2.95;;;2.20;;
22935;SDS011;11633;42.716;23.312;2022-10-16T11:12:27;3.38;;;2.20;;
22935;SDS011;11633;42.716;23.312;2022-10-16T11:17:29;2.40;;;2.00;;
22935;SDS011;11633;42.716;23.312;2022-10-16T11:27:19;5.43;;;2.20;;
22935;SDS011;11633;42.716;23.312;2022-10-16T11:29:49;4.32;;;2.05;;
22935;SDS011;11633;42.716;23.312;2022-10-16T11:32:28;3.30;;;2.42;;
22935;SDS011;11633;42.716;23.312;2022-10-16T11:34:57;2.90;;;2.05;;
22935;SDS011;11633;42.716;23.312;2022-10-16T11:37:25;3.10;;;2.30;;
22935;SDS011;11633;42.716;23.312;2022-10-16T11:39:52;2.35;;;1.98;;
22935;SDS011;11633;42.716;23.312;2022-10-16T11:42:27;2.17;;;1.88;;
22935;SDS011;11633;42.716;23.312;2022-10-16T11:48:05;2.53;;;1.95;;
22935;SDS011;11633;42.716;23.312;2022-10-16T11:50:34;2.75;;;1.65;;
22935;SDS011;11633;42.716;23.312;2022-10-16T11:53:03;2.13;;;1.67;;
22935;SDS011;11633;42.716;23.312;2022-10-16T11:55:39;2.67;;;1.73;;
22935;SDS011;11633;42.716;23.312;2022-10-16T11:58:09;3.50;;;1.83;;
22935;SDS011;11633;42.716;23.312;2022-10-16T12:05:52;2.15;;;1.52;;
22935;SDS011;11633;42.716;23.312;2022-10-16T12:08:20;2.55;;;1.70;;
22935;SDS011;11633;42.716;23.312;2022-10-16T12:10:46;4.03;;;1.77;;
22935;SDS011;11633;42.716;23.312;2022-10-16T12:18:44;3.10;;;1.85;;
22935;SDS011;11633;42.716;23.312;2022-10-16T12:21:11;2.05;;;1.83;;
22935;SDS011;11633;42.716;23.312;2022-10-16T12:26:12;2.83;;;1.83;;
22935;SDS011;11633;42.716;23.312;2022-10-16T12:28:37;2.65;;;1.85;;
22935;SDS011;11633;42.716;23.312;2022-10-16T12:31:07;1.75;;;1.63;;
22935;SDS011;11633;42.716;23.312;2022-10-16T12:36:00;2.47;;;1.80;;
22935;SDS011;11633;42.716;23.312;2022-10-16T12:38:28;2.92;;;1.58;;
22935;SDS011;11633;42.716;23.312;2022-10-16T12:41:12;1.92;;;1.58;;
22935;SDS011;11633;42.716;23.312;2022-10-16T12:43:43;2.58;;;1.70;;
22935;SDS011;11633;42.716;23.312;2022-10-16T12:48:34;1.95;;;1.50;;
22935;SDS011;11633;42.716;23.312;2022-10-16T12:51:21;1.63;;;1.40;;
22935;SDS011;11633;42.716;23.312;2022-10-16T12:53:57;1.73;;;1.42;;
22935;SDS011;11633;42.716;23.312;2022-10-16T12:56:24;3.08;;;1.77;;
22935;SDS011;11633;42.716;23.312;2022-10-16T12:58:55;2.17;;;1.35;;
22935;SDS011;11633;42.716;23.312;2022-10-16T13:06:35;2.45;;;1.95;;
22935;SDS011;11633;42.716;23.312;2022-10-16T13:14:31;2.25;;;1.60;;
22935;SDS011;11633;42.716;23.312;2022-10-16T13:19:58;2.30;;;1.48;;
22935;SDS011;11633;42.716;23.312;2022-10-16T13:25:20;3.20;;;1.75;;
22935;SDS011;11633;42.716;23.312;2022-10-16T13:27:52;6.30;;;4.32;;
22935;SDS011;11633;42.716;23.312;2022-10-16T13:30:23;2.40;;;1.77;;
22935;SDS011;11633;42.716;23.312;2022-10-16T13:33:01;1.85;;;1.40;;
22935;SDS011;11633;42.716;23.312;2022-10-16T13:35:28;1.60;;;1.33;;
22935;SDS011;11633;42.716;23.312;2022-10-16T13:38:09;2.05;;;1.50;;
22935;SDS011;11633;42.716;23.312;2022-10-16T13:40:36;1.67;;;1.40;;
22935;SDS011;11633;42.716;23.312;2022-10-16T13:43:01;2.22;;;1.40;;
22935;SDS011;11633;42.716;23.312;2022-10-16T13:45:27;1.58;;;1.42;;
22935;SDS011;11633;42.716;23.312;2022-10-16T13:48:05;3.60;;;1.40;;
22935;SDS011;11633;42.716;23.312;2022-10-16T13:50:30;1.40;;;1.20;;
22935;SDS011;11633;42.716;23.312;2022-10-16T13:53:13;3.10;;;0.80;;
22935;SDS011;11633;42.716;23.312;2022-10-16T13:55:38;1.02;;;0.90;;
22935;SDS011;11633;42.716;23.312;2022-10-16T13:58:07;1.15;;;1.00;;
22935;SDS011;11633;42.716;23.312;2022-10-16T14:00:33;1.38;;;1.13;;
22935;SDS011;11633;42.716;23.312;2022-10-16T14:03:00;1.65;;;1.10;;
22935;SDS011;11633;42.716;23.312;2022-10-16T14:05:26;1.75;;;1.10;;
22935;SDS011;11633;42.716;23.312;2022-10-16T14:07:51;1.95;;;1.13;;
22935;SDS011;11633;42.716;23.312;2022-10-16T14:12:54;0.98;;;0.85;;
22935;SDS011;11633;42.716;23.312;2022-10-16T14:15:19;1.80;;;1.30;;
22935;SDS011;11633;42.716;23.312;2022-10-16T14:17:45;2.35;;;1.40;;
22935;SDS011;11633;42.716;23.312;2022-10-16T14:20:14;1.20;;;1.00;;
22935;SDS011;11633;42.716;23.312;2022-10-16T14:22:41;2.40;;;1.23;;
22935;SDS011;11633;42.716;23.312;2022-10-16T14:27:44;3.08;;;1.40;;
22935;SDS011;11633;42.716;23.312;2022-10-16T14:32:41;2.22;;;1.42;;
22935;SDS011;11633;42.716;23.312;2022-10-16T14:37:51;2.28;;;1.20;;
22935;SDS011;11633;42.716;23.312;2022-10-16T14:40:17;1.77;;;0.98;;
22935;SDS011;11633;42.716;23.312;2022-10-16T14:42:42;1.23;;;1.10;;
22935;SDS011;11633;42.716;23.312;2022-10-16T14:45:09;1.50;;;1.23;;
22935;SDS011;11633;42.716;23.312;2022-10-16T14:47:35;1.58;;;1.35;;
22935;SDS011;11633;42.716;23.312;2022-10-16T14:50:02;2.45;;;1.90;;
22935;SDS011;11633;42.716;23.312;2022-10-16T14:52:27;1.23;;;1.05;;
22935;SDS011;11633;42.716;23.312;2022-10-16T14:54:52;4.03;;;1.70;;
22935;SDS011;11633;42.716;23.312;2022-10-16T14:57:20;2.55;;;1.40;;
22935;SDS011;11633;42.716;23.312;2022-10-16T14:59:47;2.45;;;1.20;;
22935;SDS011;11633;42.716;23.312;2022-10-16T15:04:53;3.03;;;1.40;;
22935;SDS011;11633;42.716;23.312;2022-10-16T15:07:18;2.70;;;1.73;;
22935;SDS011;11633;42.716;23.312;2022-10-16T15:09:44;2.90;;;1.40;;
22935;SDS011;11633;42.716;23.312;2022-10-16T15:12:09;2.40;;;1.60;;
22935;SDS011;11633;42.716;23.312;2022-10-16T15:14:34;5.30;;;2.17;;
22935;SDS011;11633;42.716;23.312;2022-10-16T15:16:59;2.58;;;2.00;;
22935;SDS011;11633;42.716;23.312;2022-10-16T15:19:25;2.63;;;1.75;;
22935;SDS011;11633;42.716;23.312;2022-10-16T15:21:50;2.80;;;2.05;;
22935;SDS011;11633;42.716;23.312;2022-10-16T15:24:16;3.20;;;1.40;;
22935;SDS011;11633;42.716;23.312;2022-10-16T15:26:41;2.13;;;1.25;;
22935;SDS011;11633;42.716;23.312;2022-10-16T15:29:07;2.17;;;1.90;;
22935;SDS011;11633;42.716;23.312;2022-10-16T15:31:32;2.20;;;1.60;;
22935;SDS011;11633;42.716;23.312;2022-10-16T15:33:58;2.90;;;1.73;;
22935;SDS011;11633;42.716;23.312;2022-10-16T15:36:29;3.17;;;1.65;;
22935;SDS011;11633;42.716;23.312;2022-10-16T15:38:54;2.75;;;1.48;;
22935;SDS011;11633;42.716;23.312;2022-10-16T15:41:20;2.00;;;1.60;;
22935;SDS011;11633;42.716;23.312;2022-10-16T15:43:47;2.05;;;1.65;;
22935;SDS011;11633;42.716;23.312;2022-10-16T15:46:18;2.88;;;2.20;;
22935;SDS011;11633;42.716;23.312;2022-10-16T15:48:44;2.33;;;1.85;;
22935;SDS011;11633;42.716;23.312;2022-10-16T15:51:09;2.03;;;1.60;;
22935;SDS011;11633;42.716;23.312;2022-10-16T15:53:35;3.05;;;1.90;;
22935;SDS011;11633;42.716;23.312;2022-10-16T15:56:03;2.97;;;2.05;;
22935;SDS011;11633;42.716;23.312;2022-10-16T15:58:29;1.67;;;1.55;;
22935;SDS011;11633;42.716;23.312;2022-10-16T16:00:58;2.42;;;1.60;;
22935;SDS011;11633;42.716;23.312;2022-10-16T16:03:25;2.60;;;1.90;;
22935;SDS011;11633;42.716;23.312;2022-10-16T16:05:51;2.58;;;1.77;;
22935;SDS011;11633;42.716;23.312;2022-10-16T16:08:17;3.88;;;2.22;;
22935;SDS011;11633;42.716;23.312;2022-10-16T16:10:42;2.78;;;1.45;;
22935;SDS011;11633;42.716;23.312;2022-10-16T16:13:07;2.83;;;1.73;;
22935;SDS011;11633;42.716;23.312;2022-10-16T16:15:33;2.97;;;1.83;;
22935;SDS011;11633;42.716;23.312;2022-10-16T16:17:58;2.22;;;2.03;;
22935;SDS011;11633;42.716;23.312;2022-10-16T16:20:23;2.92;;;1.85;;
22935;SDS011;11633;42.716;23.312;2022-10-16T16:22:49;2.55;;;1.65;;
22935;SDS011;11633;42.716;23.312;2022-10-16T16:25:14;2.95;;;1.80;;
22935;SDS011;11633;42.716;23.312;2022-10-16T16:27:39;2.65;;;1.73;;
22935;SDS011;11633;42.716;23.312;2022-10-16T16:30:06;5.32;;;2.28;;
22935;SDS011;11633;42.716;23.312;2022-10-16T16:32:32;2.30;;;1.88;;
22935;SDS011;11633;42.716;23.312;2022-10-16T16:34:57;3.33;;;2.22;;
22935;SDS011;11633;42.716;23.312;2022-10-16T16:37:22;2.50;;;1.90;;